< Typhoon 195227 1953 Season Typhoon 195302 >
Typhoon 195301 (IRMA)
General InformationTrack Information on Google Maps || Disaster Info.ResourceGoogle EarthGE AnimationAtom FeedGeoJSON
Detalied Best Track (Time Zone = UTC)
Year Month Day Hour Lat. Long. Pressure (hPa) Wind (kt) Class Image Chart
1953 2 20 06 8.3 153.2 1000 0 9 -- Chart
1953 2 20 12 9.2 151.9 1000 0 9 -- Chart
1953 2 20 18 9.9 150.2 1000 0 9 -- Chart
1953 2 21 00 10.2 148.5 980 0 9 -- Chart
1953 2 21 06 10.6 146.7 980 0 9 -- Chart
1953 2 21 12 11.2 145.4 980 0 9 -- Chart
1953 2 21 18 12.2 144.5 980 0 9 -- Chart
1953 2 22 00 12.8 143.4 980 0 9 -- Chart
1953 2 22 06 13.2 142.3 980 0 9 -- Chart
1953 2 22 12 13.6 141.3 980 0 9 -- Chart
1953 2 22 18 13.7 140.4 980 0 9 -- Chart
1953 2 23 00 13.9 139.3 980 0 9 -- Chart
1953 2 23 06 14.2 138.3 980 0 9 -- Chart
1953 2 23 12 14.2 136.9 980 0 9 -- Chart
1953 2 23 18 14.0 135.8 990 0 9 -- Chart
1953 2 24 00 13.8 134.8 990 0 9 -- Chart
1953 2 24 06 13.8 133.5 995 0 9 -- Chart
1953 2 24 12 13.8 132.0 995 0 9 -- Chart
1953 2 24 18 13.8 130.4 1000 0 9 -- Chart
1953 2 25 00 13.3 128.0 1000 0 9 -- Chart
1953 2 25 06 13.2 126.7 1006 0 9 -- Chart
1953 2 25 12 12.3 125.8 1012 0 2 -- Chart
1953 2 25 18 11.7 124.5 1012 0 2 -- Chart
1953 2 26 00 10.0 122.2 1012 0 2 -- Chart
Japan Meteorological Agency Best Track Data | Correction Date : 1989-06-01
< Typhoon 195227 1953 Season Typhoon 195302 >

Help